Time;durP1;ratioP1;P1;durP2;ratioP2;P2;SDS_P1;SDS_P2;PMS_P1;PMS_P2;Temp;Humidity;BMP_temperature;BMP_pressure;BME280_temperature;BME280_humidity;BME280_pressure;Samples;Min_cycle;Max_cycle;Signal;HPM_P1;HPM_P2
2022/12/01 00:01:22;;;;;;;;;0.00;0.00;;;;;;;;5107694;27;27822;-96
2022/12/01 00:03:51;;;;;;;;;0.00;0.00;;;;;;;;5092344;28;27901;-96
2022/12/01 00:06:18;;;;;;;;;0.00;0.00;;;;;;;;5087951;28;30109;-96
2022/12/01 00:11:53;;;;;;;;;0.00;0.00;;;;;;;;5110471;28;28399;-96
2022/12/01 00:14:18;;;;;;;;;0.00;0.00;;;;;;;;5091927;28;27941;-96
2022/12/01 00:16:44;;;;;;;;;1.00;1.00;;;;;;;;5090417;28;30175;-96
2022/12/01 00:19:09;;;;;;;;;0.00;0.00;;;;;;;;5089798;28;28465;-96
2022/12/01 00:21:34;;;;;;;;;0.00;0.00;;;;;;;;5091839;28;28472;-96
2022/12/01 00:24:00;;;;;;;;;0.00;0.00;;;;;;;;5105218;27;27913;-96
2022/12/01 00:26:27;;;;;;;;;0.00;0.00;;;;;;;;5114130;27;29805;-96
2022/12/01 00:28:54;;;;;;;;;0.00;0.00;;;;;;;;5110789;27;28699;-96
2022/12/01 00:31:20;;;;;;;;;0.00;0.00;;;;;;;;5107410;27;27794;-96
2022/12/01 00:33:46;;;;;;;;;0.00;0.00;;;;;;;;5110749;27;27943;-96
2022/12/01 00:36:11;;;;;;;;;0.00;0.00;;;;;;;;5094177;27;29738;-96
2022/12/01 00:38:37;;;;;;;;;0.00;0.00;;;;;;;;5112481;27;29199;-96
2022/12/01 00:41:02;;;;;;;;;0.00;0.00;;;;;;;;5086290;28;27830;-96
2022/12/01 00:43:27;;;;;;;;;0.00;0.00;;;;;;;;5083974;28;27898;-96
2022/12/01 00:45:53;;;;;;;;;0.00;0.00;;;;;;;;5070645;28;29988;-96
2022/12/01 00:48:19;;;;;;;;;0.00;0.00;;;;;;;;5073621;28;28644;-96
2022/12/01 00:50:46;;;;;;;;;0.00;0.00;;;;;;;;5106294;27;28003;-97
2022/12/01 00:53:11;;;;;;;;;11.67;11.67;;;;;;;;5112413;27;28488;-96
2022/12/01 00:55:36;;;;;;;;;0.00;0.00;;;;;;;;5092108;27;29699;-96
2022/12/01 00:58:02;;;;;;;;;0.00;0.00;;;;;;;;5109039;27;28845;-96
2022/12/01 01:00:27;;;;;;;;;0.00;0.00;;;;;;;;5109672;27;27962;-96
2022/12/01 01:02:52;;;;;;;;;0.00;0.00;;;;;;;;5111077;27;27965;-96
2022/12/01 01:05:20;;;;;;;;;0.00;0.00;;;;;;;;5130709;27;28352;-96
2022/12/01 01:07:47;;;;;;;;;0.00;0.00;;;;;;;;5113555;27;27896;-96
2022/12/01 01:10:13;;;;;;;;;0.00;0.00;;;;;;;;5110659;27;28603;-96
2022/12/01 01:12:39;;;;;;;;;0.00;0.00;;;;;;;;5129949;27;27846;-96
2022/12/01 01:15:06;;;;;;;;;0.00;0.00;;;;;;;;5088243;28;30316;-96
2022/12/01 01:17:31;;;;;;;;;0.00;0.00;;;;;;;;5087114;28;29236;-96
2022/12/01 01:19:57;;;;;;;;;0.00;0.00;;;;;;;;5097030;27;27863;-96
2022/12/01 01:22:22;;;;;;;;;0.00;0.00;;;;;;;;5095780;28;27843;-96
2022/12/01 01:24:47;;;;;;;;;0.00;0.00;;;;;;;;5106355;27;29718;-96
2022/12/01 01:27:12;;;;;;;;;0.00;0.00;;;;;;;;5105242;27;28426;-96
2022/12/01 01:29:39;;;;;;;;;0.00;0.00;;;;;;;;5107310;27;28405;-96
2022/12/01 01:32:04;;;;;;;;;0.00;0.00;;;;;;;;5108428;27;28400;-96
2022/12/01 01:34:30;;;;;;;;;0.00;0.00;;;;;;;;5107614;27;30886;-96
2022/12/01 01:36:55;;;;;;;;;0.00;0.00;;;;;;;;5107674;27;28846;-96
2022/12/01 01:39:20;;;;;;;;;0.00;0.00;;;;;;;;5109401;27;27790;-96
2022/12/01 01:41:45;;;;;;;;;0.00;0.00;;;;;;;;5110590;27;28403;-96
2022/12/01 01:44:29;;;;;;;;;0.00;0.00;;;;;;;;5108492;27;30053;-96
2022/12/01 01:46:55;;;;;;;;;0.00;0.00;;;;;;;;5107360;27;29208;-96
2022/12/01 01:49:20;;;;;;;;;0.00;0.00;;;;;;;;5108050;27;27941;-96
2022/12/01 01:51:49;;;;;;;;;0.00;0.00;;;;;;;;5089757;27;32355;-96
2022/12/01 01:54:30;;;;;;;;;0.00;0.00;;;;;;;;5104713;27;36253;-96
2022/12/01 01:56:56;;;;;;;;;0.00;0.00;;;;;;;;5106596;27;29045;-96
2022/12/01 01:59:25;;;;;;;;;0.00;0.00;;;;;;;;5106890;27;29863;-96
2022/12/01 02:01:57;;;;;;;;;0.00;0.00;;;;;;;;5090299;27;30736;-96
2022/12/01 02:04:24;;;;;;;;;0.00;0.00;;;;;;;;5107147;27;31547;-96
2022/12/01 02:06:49;;;;;;;;;0.00;0.00;;;;;;;;5105704;27;33404;-96
2022/12/01 02:09:14;;;;;;;;;0.00;0.00;;;;;;;;5103322;27;31634;-96
2022/12/01 02:11:55;;;;;;;;;0.00;0.00;;;;;;;;5100154;27;39282;-96
2022/12/01 02:14:27;;;;;;;;;0.00;0.00;;;;;;;;5115795;27;37704;-96
2022/12/01 02:16:58;;;;;;;;;16.00;16.00;;;;;;;;5103873;27;35763;-96
2022/12/01 02:19:27;;;;;;;;;0.00;0.00;;;;;;;;5105672;27;33162;-96
2022/12/01 02:21:52;;;;;;;;;0.00;0.00;;;;;;;;5104322;27;34680;-96
2022/12/01 02:24:36;;;;;;;;;0.00;0.00;;;;;;;;5102273;27;37931;-96
2022/12/01 02:27:05;;;;;;;;;0.00;0.00;;;;;;;;5101181;27;43685;-96
2022/12/01 02:29:30;;;;;;;;;0.00;0.00;;;;;;;;5098305;27;37501;-96
2022/12/01 02:31:55;;;;;;;;;0.00;0.00;;;;;;;;5094523;27;37034;-96
2022/12/01 02:34:30;;;;;;;;;0.00;0.00;;;;;;;;5097028;27;37792;-96
2022/12/01 02:37:07;;;;;;;;;0.00;0.00;;;;;;;;5101219;27;34588;-96
2022/12/01 02:39:34;;;;;;;;;0.00;0.00;;;;;;;;5103961;27;29142;-96
2022/12/01 02:42:10;;;;;;;;;0.00;0.00;;;;;;;;5103443;27;31378;-96
2022/12/01 02:44:42;;;;;;;;;0.00;0.00;;;;;;;;5103739;27;30493;-96
2022/12/01 02:47:10;;;;;;;;;0.00;0.00;;;;;;;;5099115;27;34083;-96
2022/12/01 02:49:39;;;;;;;;;0.00;0.00;;;;;;;;5100123;27;32684;-96
2022/12/01 02:52:05;;;;;;;;;0.00;0.00;;;;;;;;5095451;27;35767;-96
2022/12/01 02:54:31;;;;;;;;;0.00;0.00;;;;;;;;5098875;27;34843;-96
2022/12/01 02:56:56;;;;;;;;;0.00;0.00;;;;;;;;5098167;27;37614;-96
2022/12/01 02:59:21;;;;;;;;;0.00;0.00;;;;;;;;5096881;27;41833;-96
2022/12/01 03:01:51;;;;;;;;;0.00;0.00;;;;;;;;5105481;27;28439;-96
2022/12/01 03:04:34;;;;;;;;;0.00;0.00;;;;;;;;5105311;27;30029;-96
2022/12/01 03:07:03;;;;;;;;;0.00;0.00;;;;;;;;5105692;27;28750;-95
2022/12/01 03:09:40;;;;;;;;;0.00;0.00;;;;;;;;5106599;27;27778;-96
2022/12/01 03:12:22;;;;;;;;;0.00;0.00;;;;;;;;5105936;27;27891;-96
2022/12/01 03:15:02;;;;;;;;;0.00;0.00;;;;;;;;5094635;27;42665;-96
2022/12/01 03:17:30;;;;;;;;;0.00;0.00;;;;;;;;5100170;27;36353;-96
2022/12/01 03:20:08;;;;;;;;;0.00;0.00;;;;;;;;5109311;27;29534;-96
2022/12/01 03:22:36;;;;;;;;;0.00;0.00;;;;;;;;5111397;27;28392;-96
2022/12/01 03:25:03;;;;;;;;;0.00;0.00;;;;;;;;5110978;27;30021;-96
2022/12/01 03:27:30;;;;;;;;;0.00;0.00;;;;;;;;5107257;27;29610;-96
2022/12/01 03:29:58;;;;;;;;;0.00;0.00;;;;;;;;5107368;27;28457;-96
2022/12/01 03:32:28;;;;;;;;;0.00;0.00;;;;;;;;5108770;27;28325;-96
2022/12/01 03:34:57;;;;;;;;;0.00;0.00;;;;;;;;5108704;27;30161;-96
2022/12/01 03:37:26;;;;;;;;;0.00;0.00;;;;;;;;5107980;27;28892;-96
2022/12/01 03:39:55;;;;;;;;;0.00;0.00;;;;;;;;5103383;27;28326;-96
2022/12/01 03:42:39;;;;;;;;;0.00;0.00;;;;;;;;5102998;27;27883;-96
2022/12/01 03:45:06;;;;;;;;;0.00;0.00;;;;;;;;5102413;27;29791;-96
2022/12/01 03:47:34;;;;;;;;;0.00;0.00;;;;;;;;5103534;27;29771;-96
2022/12/01 03:49:59;;;;;;;;;0.00;0.00;;;;;;;;5102173;27;28492;-96
2022/12/01 03:52:44;;;;;;;;;4.33;4.33;;;;;;;;5101402;27;28555;-96
2022/12/01 03:55:22;;;;;;;;;0.00;0.00;;;;;;;;5102303;27;30012;-96
2022/12/01 03:58:06;;;;;;;;;0.00;0.00;;;;;;;;5102236;27;28581;-96
2022/12/01 04:00:32;;;;;;;;;12.00;12.00;;;;;;;;5102315;27;28697;-96
2022/12/01 04:02:58;;;;;;;;;0.00;0.00;;;;;;;;5100737;27;30024;-96
2022/12/01 04:05:24;;;;;;;;;0.00;0.00;;;;;;;;5101074;27;30084;-96
2022/12/01 04:07:49;;;;;;;;;0.00;0.00;;;;;;;;5103057;27;29625;-96
2022/12/01 04:10:14;;;;;;;;;0.00;0.00;;;;;;;;5101495;27;28671;-96
2022/12/01 04:12:40;;;;;;;;;0.00;0.00;;;;;;;;5098008;27;40520;-96
2022/12/01 04:15:11;;;;;;;;;0.00;0.00;;;;;;;;5097630;27;32749;-96
2022/12/01 04:17:36;;;;;;;;;0.00;0.00;;;;;;;;5102639;27;28628;-96
2022/12/01 04:20:03;;;;;;;;;0.00;0.00;;;;;;;;5103179;27;29933;-96
2022/12/01 04:22:28;;;;;;;;;0.00;0.00;;;;;;;;5103972;27;30504;-96
2022/12/01 04:24:54;;;;;;;;;0.00;0.00;;;;;;;;5107886;27;30895;-96
2022/12/01 04:27:19;;;;;;;;;0.00;0.00;;;;;;;;5107943;27;28537;-96
2022/12/01 04:29:44;;;;;;;;;0.00;0.00;;;;;;;;5107377;27;30508;-96
2022/12/01 04:32:10;;;;;;;;;0.00;0.00;;;;;;;;5107420;27;32166;-96
2022/12/01 04:34:35;;;;;;;;;0.00;0.00;;;;;;;;5105183;27;31290;-96
2022/12/01 04:37:00;;;;;;;;;0.00;0.00;;;;;;;;5102798;27;29747;-96
2022/12/01 04:39:25;;;;;;;;;0.00;0.00;;;;;;;;5099336;27;28464;-96
2022/12/01 04:41:51;;;;;;;;;0.00;0.00;;;;;;;;5095471;28;27965;-96
2022/12/01 04:44:16;;;;;;;;;0.00;0.00;;;;;;;;5095344;28;30089;-96
2022/12/01 04:46:41;;;;;;;;;0.00;0.00;;;;;;;;5097328;28;28401;-96
2022/12/01 04:49:06;;;;;;;;;0.00;0.00;;;;;;;;5098075;28;28335;-96
2022/12/01 04:51:32;;;;;;;;;0.00;0.00;;;;;;;;5097593;28;28504;-96
2022/12/01 04:53:57;;;;;;;;;0.00;0.00;;;;;;;;5095134;28;29840;-96
2022/12/01 04:56:22;;;;;;;;;0.00;0.00;;;;;;;;5093136;28;29360;-96
2022/12/01 04:58:47;;;;;;;;;0.00;0.00;;;;;;;;5096238;28;31369;-96
2022/12/01 05:01:15;;;;;;;;;0.00;0.00;;;;;;;;5095237;28;27884;-96
2022/12/01 05:03:41;;;;;;;;;12.00;12.00;;;;;;;;5094741;28;42703;-96
2022/12/01 05:06:12;;;;;;;;;0.00;0.00;;;;;;;;5093741;28;41439;-96
2022/12/01 05:08:37;;;;;;;;;0.00;0.00;;;;;;;;5091236;28;44443;-96
2022/12/01 05:11:06;;;;;;;;;1.00;1.00;;;;;;;;5097127;28;41619;-96
2022/12/01 05:13:32;;;;;;;;;0.00;0.00;;;;;;;;5102670;28;30719;-96
2022/12/01 05:16:07;;;;;;;;;15.00;15.00;;;;;;;;5105048;28;28697;-96
2022/12/01 05:18:33;;;;;;;;;0.00;0.00;;;;;;;;5101713;27;28367;-96
2022/12/01 05:20:58;;;;;;;;;0.00;0.00;;;;;;;;5101325;27;27920;-96
2022/12/01 05:23:27;;;;;;;;;0.00;0.00;;;;;;;;5105764;27;30640;-96
2022/12/01 05:25:53;;;;;;;;;0.00;0.00;;;;;;;;5108114;27;29012;-96
2022/12/01 05:28:18;;;;;;;;;0.00;0.00;;;;;;;;5112361;27;31516;-96
2022/12/01 05:30:43;;;;;;;;;0.00;0.00;;;;;;;;5108482;27;33463;-96
2022/12/01 05:33:09;;;;;;;;;0.00;0.00;;;;;;;;5108543;27;38890;-96
2022/12/01 05:35:34;;;;;;;;;0.00;0.00;;;;;;;;5103949;27;43489;-96
2022/12/01 05:37:59;;;;;;;;;0.00;0.00;;;;;;;;5097676;27;44284;-96
2022/12/01 05:40:24;;;;;;;;;0.00;0.00;;;;;;;;5094150;27;44306;-96
2022/12/01 05:42:50;;;;;;;;;0.00;0.00;;;;;;;;5095188;27;44754;-96
2022/12/01 05:45:15;;;;;;;;;2.67;2.67;;;;;;;;5082654;27;40401;-96
2022/12/01 05:47:40;;;;;;;;;0.00;0.00;;;;;;;;5100295;27;39941;-96
2022/12/01 05:50:06;;;;;;;;;0.00;0.00;;;;;;;;5095142;27;41988;-96
2022/12/01 05:52:33;;;;;;;;;0.00;0.00;;;;;;;;5095961;27;43080;-96
2022/12/01 05:54:58;;;;;;;;;0.00;0.00;;;;;;;;5096340;27;42796;-96
2022/12/01 05:57:23;;;;;;;;;0.00;0.00;;;;;;;;5094026;27;42444;-96
2022/12/01 05:59:48;;;;;;;;;0.00;0.00;;;;;;;;5086440;27;45293;-96
2022/12/01 06:02:13;;;;;;;;;0.00;0.00;;;;;;;;5082837;27;47827;-96
2022/12/01 06:04:39;;;;;;;;;0.00;0.00;;;;;;;;5088810;27;44659;-96
2022/12/01 06:07:04;;;;;;;;;0.00;0.00;;;;;;;;5089333;27;45279;-96
2022/12/01 06:09:29;;;;;;;;;0.00;0.00;;;;;;;;5090177;27;45133;-96
2022/12/01 06:11:54;;;;;;;;;0.00;0.00;;;;;;;;5089164;27;46935;-96
2022/12/01 06:14:19;;;;;;;;;1.00;1.00;;;;;;;;5076720;27;44701;-96
2022/12/01 06:16:45;;;;;;;;;0.00;0.00;;;;;;;;5091017;27;45498;-96
2022/12/01 06:19:10;;;;;;;;;0.00;0.00;;;;;;;;5096714;27;45224;-96
2022/12/01 06:21:35;;;;;;;;;0.00;0.00;;;;;;;;5094995;27;46674;-96
2022/12/01 06:24:00;;;;;;;;;0.00;0.00;;;;;;;;5090275;27;45539;-96
2022/12/01 06:26:31;;;;;;;;;0.00;0.00;;;;;;;;5087852;27;45114;-96
2022/12/01 06:28:57;;;;;;;;;2.00;2.00;;;;;;;;5106059;27;45119;-96
2022/12/01 06:31:22;;;;;;;;;0.00;0.00;;;;;;;;5087861;27;46572;-96
2022/12/01 06:33:49;;;;;;;;;0.00;0.00;;;;;;;;5090505;27;45381;-96
2022/12/01 06:36:14;;;;;;;;;0.00;0.00;;;;;;;;5097265;27;44943;-96
2022/12/01 06:38:40;;;;;;;;;0.00;0.00;;;;;;;;5095103;27;45350;-96
2022/12/01 06:41:05;;;;;;;;;0.00;0.00;;;;;;;;5092587;27;46202;-96
2022/12/01 06:43:30;;;;;;;;;0.00;0.00;;;;;;;;5091476;27;44732;-96
2022/12/01 06:45:55;;;;;;;;;0.00;0.00;;;;;;;;5092905;27;41920;-96
2022/12/01 06:48:21;;;;;;;;;0.00;0.00;;;;;;;;5085449;27;44798;-96
2022/12/01 06:50:46;;;;;;;;;1.00;1.00;;;;;;;;5086150;27;46986;-96
2022/12/01 06:53:11;;;;;;;;;0.00;0.00;;;;;;;;5086173;27;44509;-96
2022/12/01 06:55:37;;;;;;;;;0.00;0.00;;;;;;;;5092523;27;43069;-96
2022/12/01 06:58:02;;;;;;;;;0.00;0.00;;;;;;;;5097172;27;38298;-96
2022/12/01 07:00:31;;;;;;;;;0.00;0.00;;;;;;;;5096869;27;35098;-96
2022/12/01 07:02:56;;;;;;;;;7.00;7.00;;;;;;;;5097913;27;34893;-96
2022/12/01 07:05:21;;;;;;;;;4.67;4.67;;;;;;;;5099139;27;30936;-96
2022/12/01 07:07:47;;;;;;;;;0.00;0.00;;;;;;;;5099362;27;33573;-96
2022/12/01 07:10:12;;;;;;;;;0.00;0.00;;;;;;;;5097139;27;33478;-96
2022/12/01 07:12:37;;;;;;;;;0.00;0.00;;;;;;;;5097667;27;31984;-96
2022/12/01 07:15:03;;;;;;;;;0.00;0.00;;;;;;;;5095386;27;32015;-96
2022/12/01 07:17:33;;;;;;;;;3.00;3.00;;;;;;;;5100671;27;33185;-96
2022/12/01 07:19:59;;;;;;;;;0.00;0.00;;;;;;;;5098649;27;32442;-96
2022/12/01 07:22:24;;;;;;;;;0.00;0.00;;;;;;;;5093758;28;36164;-96
2022/12/01 07:24:49;;;;;;;;;0.00;0.00;;;;;;;;5074418;28;34469;-95
2022/12/01 07:27:14;;;;;;;;;0.00;0.00;;;;;;;;5090357;28;33313;-87
2022/12/01 07:29:39;;;;;;;;;0.00;0.00;;;;;;;;5111400;27;29462;-88
2022/12/01 07:32:05;;;;;;;;;0.00;0.00;;;;;;;;5112191;27;28577;-86
2022/12/01 07:34:30;;;;;;;;;0.00;0.00;;;;;;;;5109961;27;33888;-89
2022/12/01 07:36:55;;;;;;;;;0.00;0.00;;;;;;;;5091046;27;34276;-92
2022/12/01 07:39:20;;;;;;;;;0.00;0.00;;;;;;;;5089372;27;34976;-90
2022/12/01 07:41:45;;;;;;;;;0.00;0.00;;;;;;;;5089557;27;34940;-90
2022/12/01 07:44:11;;;;;;;;;0.00;0.00;;;;;;;;5088551;27;39971;-90
2022/12/01 07:46:36;;;;;;;;;0.00;0.00;;;;;;;;5086916;27;38551;-90
2022/12/01 07:49:03;;;;;;;;;0.00;0.00;;;;;;;;5087991;27;42260;-89
2022/12/01 07:51:29;;;;;;;;;0.00;0.00;;;;;;;;5109948;27;33507;-89
2022/12/01 07:53:54;;;;;;;;;0.00;0.00;;;;;;;;5109929;27;33926;-88
2022/12/01 07:56:19;;;;;;;;;0.67;0.67;;;;;;;;5111620;27;28548;-88
2022/12/01 07:58:45;;;;;;;;;0.00;0.00;;;;;;;;5111147;27;28487;-89
2022/12/01 08:01:12;;;;;;;;;0.00;0.00;;;;;;;;5111120;27;28415;-89
2022/12/01 08:03:37;;;;;;;;;0.00;0.00;;;;;;;;5089456;28;28465;-89
2022/12/01 08:06:03;;;;;;;;;0.00;0.00;;;;;;;;5110441;27;28503;-89
2022/12/01 08:08:29;;;;;;;;;1.00;1.00;;;;;;;;5112116;27;28477;-90
2022/12/01 08:10:58;;;;;;;;;0.00;0.00;;;;;;;;5091388;27;28837;-89
2022/12/01 08:13:23;;;;;;;;;0.00;0.00;;;;;;;;5109666;27;28712;-88
2022/12/01 08:15:48;;;;;;;;;0.00;0.00;;;;;;;;5087798;27;28396;-88
2022/12/01 08:18:14;;;;;;;;;0.00;0.00;;;;;;;;5106585;27;29689;-89
2022/12/01 08:20:39;;;;;;;;;0.00;0.00;;;;;;;;5091241;27;29241;-88
2022/12/01 08:23:04;;;;;;;;;0.33;0.33;;;;;;;;5092019;27;28481;-88
2022/12/01 08:25:31;;;;;;;;;0.00;0.00;;;;;;;;5109340;27;31463;-89
2022/12/01 08:27:56;;;;;;;;;0.00;0.00;;;;;;;;5105026;27;38387;-88
2022/12/01 08:30:21;;;;;;;;;0.00;0.00;;;;;;;;5084397;27;37885;-88
2022/12/01 08:32:46;;;;;;;;;0.00;0.00;;;;;;;;5096908;27;36687;-88
2022/12/01 08:35:12;;;;;;;;;0.00;0.00;;;;;;;;5099851;27;42545;-89
2022/12/01 08:37:37;;;;;;;;;0.00;0.00;;;;;;;;5103691;27;40525;-88
2022/12/01 08:40:02;;;;;;;;;0.00;0.00;;;;;;;;5074678;27;43811;-88
2022/12/01 08:42:27;;;;;;;;;0.00;0.00;;;;;;;;5078671;27;41406;-88
2022/12/01 08:44:53;;;;;;;;;0.00;0.00;;;;;;;;5099638;27;43158;-89
2022/12/01 08:47:18;;;;;;;;;0.00;0.00;;;;;;;;5092465;27;31377;-89
2022/12/01 08:49:43;;;;;;;;;0.00;0.00;;;;;;;;5108243;27;29683;-89
2022/12/01 08:52:08;;;;;;;;;0.00;0.00;;;;;;;;5108998;27;31424;-88
2022/12/01 08:54:33;;;;;;;;;0.00;0.00;;;;;;;;5078627;27;29301;-88
2022/12/01 08:56:59;;;;;;;;;0.00;0.00;;;;;;;;5091108;27;29794;-88
2022/12/01 08:59:24;;;;;;;;;16.00;16.00;;;;;;;;5089148;27;28965;-88
2022/12/01 09:01:52;;;;;;;;;0.00;0.00;;;;;;;;5088710;27;28886;-89
2022/12/01 09:04:18;;;;;;;;;0.00;0.00;;;;;;;;5091693;27;30788;-89
2022/12/01 09:06:44;;;;;;;;;0.00;0.00;;;;;;;;5087843;27;30374;-90
2022/12/01 09:09:11;;;;;;;;;0.00;0.00;;;;;;;;5089968;27;28605;-92
2022/12/01 09:11:37;;;;;;;;;0.00;0.00;;;;;;;;5106446;27;28512;-87
2022/12/01 09:14:02;;;;;;;;;0.00;0.00;;;;;;;;5090033;27;28477;-84
2022/12/01 09:16:27;;;;;;;;;0.00;0.00;;;;;;;;5103286;27;29475;-85
2022/12/01 09:18:53;;;;;;;;;0.00;0.00;;;;;;;;5086201;27;30017;-86
2022/12/01 09:21:23;;;;;;;;;0.00;0.00;;;;;;;;5094680;27;28920;-86
2022/12/01 09:23:48;;;;;;;;;0.00;0.00;;;;;;;;5105182;27;28406;-85
2022/12/01 09:26:17;;;;;;;;;0.00;0.00;;;;;;;;5106523;27;28503;-86
2022/12/01 09:28:47;;;;;;;;;0.00;0.00;;;;;;;;5092157;27;29626;-86
2022/12/01 09:31:13;;;;;;;;;0.00;0.00;;;;;;;;5094740;27;27864;-86
2022/12/01 09:33:38;;;;;;;;;0.00;0.00;;;;;;;;5092297;27;28462;-86
2022/12/01 09:36:04;;;;;;;;;0.00;0.00;;;;;;;;5089542;27;31080;-87
2022/12/01 09:38:30;;;;;;;;;0.00;0.00;;;;;;;;5110376;27;28648;-87
2022/12/01 09:40:58;;;;;;;;;0.00;0.00;;;;;;;;5099504;27;28513;-86
2022/12/01 09:43:26;;;;;;;;;0.00;0.00;;;;;;;;5110118;27;28438;-86
2022/12/01 09:45:55;;;;;;;;;0.00;0.00;;;;;;;;5089067;27;31312;-86
2022/12/01 09:48:42;;;;;;;;;0.00;0.00;;;;;;;;5093245;27;28850;-87
2022/12/01 09:51:14;;;;;;;;;0.00;0.00;;;;;;;;5119541;27;28533;-87
2022/12/01 09:53:39;;;;;;;;;0.00;0.00;;;;;;;;5099426;27;28763;-86
2022/12/01 09:56:05;;;;;;;;;0.00;0.00;;;;;;;;5082959;27;29588;-86
2022/12/01 09:58:30;;;;;;;;;0.00;0.00;;;;;;;;5095238;27;28604;-86
2022/12/01 10:00:56;;;;;;;;;0.00;0.00;;;;;;;;5107489;27;28638;-86
2022/12/01 10:03:24;;;;;;;;;0.00;0.00;;;;;;;;5093281;27;28517;-87
2022/12/01 10:05:49;;;;;;;;;0.00;0.00;;;;;;;;5111578;27;29545;-87
2022/12/01 10:08:17;;;;;;;;;0.00;0.00;;;;;;;;5093303;27;28803;-89
2022/12/01 10:10:44;;;;;;;;;0.00;0.00;;;;;;;;5093309;27;28353;-87
2022/12/01 10:13:17;;;;;;;;;0.00;0.00;;;;;;;;5111987;27;28928;-86
2022/12/01 10:15:49;;;;;;;;;0.00;0.00;;;;;;;;5093120;27;30581;-89
2022/12/01 10:18:29;;;;;;;;;0.00;0.00;;;;;;;;5112042;27;28400;-87
2022/12/01 10:21:04;;;;;;;;;0.00;0.00;;;;;;;;5091546;27;28582;-87
2022/12/01 10:23:32;;;;;;;;;0.00;0.00;;;;;;;;5083809;27;28705;-87
2022/12/01 10:26:12;;;;;;;;;0.00;0.00;;;;;;;;5091913;27;30561;-87
2022/12/01 10:28:41;;;;;;;;;0.00;0.00;;;;;;;;5088494;27;29133;-87
2022/12/01 10:31:21;;;;;;;;;0.00;0.00;;;;;;;;5087560;27;29962;-87
2022/12/01 10:34:01;;;;;;;;;0.00;0.00;;;;;;;;5109351;27;28542;-89
2022/12/01 10:36:27;;;;;;;;;0.00;0.00;;;;;;;;5097706;27;30178;-90
2022/12/01 10:38:53;;;;;;;;;0.00;0.00;;;;;;;;5111201;27;28450;-91
2022/12/01 10:41:19;;;;;;;;;0.00;0.00;;;;;;;;5092347;27;28595;-90
2022/12/01 10:43:46;;;;;;;;;0.00;0.00;;;;;;;;5104477;27;28521;-90
2022/12/01 10:46:23;;;;;;;;;0.00;0.00;;;;;;;;5091001;27;30045;-90
2022/12/01 10:48:53;;;;;;;;;0.00;0.00;;;;;;;;5091820;27;29123;-89
2022/12/01 10:51:20;;;;;;;;;0.00;0.00;;;;;;;;5091778;27;28477;-90
2022/12/01 10:53:45;;;;;;;;;15.00;15.00;;;;;;;;5092095;27;28311;-90
2022/12/01 10:56:20;;;;;;;;;0.00;0.00;;;;;;;;5093862;27;30414;-91
2022/12/01 10:58:52;;;;;;;;;1.00;1.00;;;;;;;;5107185;27;28770;-90
2022/12/01 11:01:30;;;;;;;;;0.00;0.00;;;;;;;;5114562;27;28748;-89
2022/12/01 11:04:01;;;;;;;;;0.00;0.00;;;;;;;;5092925;27;28412;-91
2022/12/01 11:06:27;;;;;;;;;0.00;0.00;;;;;;;;5078217;27;30377;-91
2022/12/01 11:08:58;;;;;;;;;0.00;0.00;;;;;;;;5093183;27;29438;-91
2022/12/01 11:11:35;;;;;;;;;0.00;0.00;;;;;;;;5094050;27;28528;-89
2022/12/01 11:14:02;;;;;;;;;0.00;0.00;;;;;;;;5119873;27;28404;-90
2022/12/01 11:16:36;;;;;;;;;0.00;0.00;;;;;;;;5092837;27;30138;-89
2022/12/01 11:19:17;;;;;;;;;0.00;0.00;;;;;;;;5093722;27;28738;-91
2022/12/01 11:21:46;;;;;;;;;0.00;0.00;;;;;;;;5110851;27;28402;-91
2022/12/01 11:24:25;;;;;;;;;0.00;0.00;;;;;;;;5094246;27;28512;-90
2022/12/01 11:26:50;;;;;;;;;0.00;0.00;;;;;;;;5093314;27;30230;-88
2022/12/01 11:29:29;;;;;;;;;4.67;4.67;;;;;;;;5090859;27;29942;-89
2022/12/01 11:31:54;;;;;;;;;0.00;0.00;;;;;;;;5094378;27;28334;-90
2022/12/01 11:34:30;;;;;;;;;0.00;0.00;;;;;;;;5091290;27;28549;-87
2022/12/01 11:36:56;;;;;;;;;0.00;0.00;;;;;;;;5109816;27;28604;-89
2022/12/01 11:39:31;;;;;;;;;0.00;0.00;;;;;;;;5089894;27;28597;-89
2022/12/01 11:42:23;;;;;;;;;0.00;0.00;;;;;;;;5098441;27;28951;-92
2022/12/01 11:44:53;;;;;;;;;0.00;0.00;;;;;;;;5103424;27;28551;-86
2022/12/01 11:47:19;;;;;;;;;0.00;0.00;;;;;;;;5099871;27;28583;-89
2022/12/01 11:49:47;;;;;;;;;0.00;0.00;;;;;;;;5091291;27;28544;-86
2022/12/01 11:52:16;;;;;;;;;0.00;0.00;;;;;;;;5116481;27;28306;-92
2022/12/01 11:54:53;;;;;;;;;0.00;0.00;;;;;;;;5111760;27;28514;-87
2022/12/01 11:57:18;;;;;;;;;0.00;0.00;;;;;;;;5093576;27;31326;-88
2022/12/01 11:59:43;;;;;;;;;0.00;0.00;;;;;;;;5095244;27;30153;-88
2022/12/01 12:02:29;;;;;;;;;0.00;0.00;;;;;;;;5117553;27;28116;-87
2022/12/01 12:05:14;;;;;;;;;0.00;0.00;;;;;;;;5080266;27;28696;-89
2022/12/01 12:07:42;;;;;;;;;0.00;0.00;;;;;;;;5092222;27;29845;-88
2022/12/01 12:10:30;;;;;;;;;0.00;0.00;;;;;;;;5094791;27;28770;-89
2022/12/01 12:13:14;;;;;;;;;0.00;0.00;;;;;;;;5116523;27;27937;-91
2022/12/01 12:15:49;;;;;;;;;0.00;0.00;;;;;;;;5094695;27;28503;-89
2022/12/01 12:18:26;;;;;;;;;0.00;0.00;;;;;;;;5099776;27;31078;-91
2022/12/01 12:20:51;;;;;;;;;0.00;0.00;;;;;;;;5112775;27;28416;-94
2022/12/01 12:23:35;;;;;;;;;0.00;0.00;;;;;;;;5094213;27;28581;-91
2022/12/01 12:26:09;;;;;;;;;0.00;0.00;;;;;;;;5113413;27;28693;-90
2022/12/01 12:28:45;;;;;;;;;9.00;9.00;;;;;;;;5092876;27;31279;-90
2022/12/01 12:31:29;;;;;;;;;0.00;0.00;;;;;;;;5110494;27;28532;-91
2022/12/01 12:33:58;;;;;;;;;0.00;0.00;;;;;;;;5093831;27;28430;-91
2022/12/01 12:36:38;;;;;;;;;0.00;0.00;;;;;;;;5114086;27;28669;-89
2022/12/01 12:39:23;;;;;;;;;0.00;0.00;;;;;;;;5094954;27;30421;-89
2022/12/01 12:41:50;;;;;;;;;0.00;0.00;;;;;;;;5112680;27;28525;-89
2022/12/01 12:44:40;;;;;;;;;0.00;0.00;;;;;;;;5095652;27;28642;-87
2022/12/01 12:47:08;;;;;;;;;0.00;0.00;;;;;;;;5115405;27;28916;-91
2022/12/01 12:49:43;;;;;;;;;0.00;0.00;;;;;;;;5114376;27;28684;-89
2022/12/01 12:52:21;;;;;;;;;0.00;0.00;;;;;;;;5100543;27;29914;-91
2022/12/01 12:54:49;;;;;;;;;0.00;0.00;;;;;;;;5114790;27;28467;-91
2022/12/01 12:57:27;;;;;;;;;0.00;0.00;;;;;;;;5091808;27;28606;-88
2022/12/01 12:59:58;;;;;;;;;0.00;0.00;;;;;;;;5089454;27;29845;-92
2022/12/01 13:02:26;;;;;;;;;0.00;0.00;;;;;;;;5091108;27;28859;-84
2022/12/01 13:05:10;;;;;;;;;0.00;0.00;;;;;;;;5090824;27;28559;-86
2022/12/01 13:07:35;;;;;;;;;0.00;0.00;;;;;;;;5108532;27;28465;-86
2022/12/01 13:10:05;;;;;;;;;0.00;0.00;;;;;;;;5104745;27;29110;-87
2022/12/01 13:12:33;;;;;;;;;0.00;0.00;;;;;;;;5083844;27;28828;-86
2022/12/01 13:15:08;;;;;;;;;0.00;0.00;;;;;;;;5106647;27;28563;-85
2022/12/01 13:17:37;;;;;;;;;0.00;0.00;;;;;;;;5114720;27;28488;-85
2022/12/01 13:20:03;;;;;;;;;0.00;0.00;;;;;;;;5087071;27;31055;-85
2022/12/01 13:22:31;;;;;;;;;3.67;3.67;;;;;;;;5105031;27;30556;-86
2022/12/01 13:24:56;;;;;;;;;0.00;0.00;;;;;;;;5094654;27;28689;-85
2022/12/01 13:27:22;;;;;;;;;0.00;0.00;;;;;;;;5094377;27;28579;-86
2022/12/01 13:29:51;;;;;;;;;0.00;0.00;;;;;;;;5112377;27;28625;-86
2022/12/01 13:32:23;;;;;;;;;0.00;0.00;;;;;;;;5112962;27;28426;-86
2022/12/01 13:34:48;;;;;;;;;0.00;0.00;;;;;;;;5098073;27;28500;-85
2022/12/01 13:37:24;;;;;;;;;0.00;0.00;;;;;;;;5120815;27;32261;-86
2022/12/01 13:39:52;;;;;;;;;0.00;0.00;;;;;;;;5116117;27;28671;-86
2022/12/01 13:42:25;;;;;;;;;0.00;0.00;;;;;;;;5095615;27;30298;-86
2022/12/01 13:45:00;;;;;;;;;0.00;0.00;;;;;;;;5112933;27;28500;-87
2022/12/01 13:47:31;;;;;;;;;0.00;0.00;;;;;;;;5091608;27;28442;-86
2022/12/01 13:50:17;;;;;;;;;0.00;0.00;;;;;;;;5112257;27;28593;-86
2022/12/01 13:52:49;;;;;;;;;1.00;1.00;;;;;;;;5112475;27;28433;-86
2022/12/01 13:55:14;;;;;;;;;0.00;0.00;;;;;;;;5095283;27;28570;-86
2022/12/01 13:57:58;;;;;;;;;0.00;0.00;;;;;;;;5094941;27;28444;-86
2022/12/01 14:00:27;;;;;;;;;0.00;0.00;;;;;;;;5112720;27;28536;-87
2022/12/01 14:03:13;;;;;;;;;0.00;0.00;;;;;;;;5109054;27;28658;-86
2022/12/01 14:05:38;;;;;;;;;0.00;0.00;;;;;;;;5089495;27;28457;-86
2022/12/01 14:08:12;;;;;;;;;0.00;0.00;;;;;;;;5094191;27;28712;-88
2022/12/01 14:10:37;;;;;;;;;0.00;0.00;;;;;;;;5094200;27;30896;-86
2022/12/01 14:13:03;;;;;;;;;0.00;0.00;;;;;;;;5098476;27;30315;-88
2022/12/01 14:15:31;;;;;;;;;0.00;0.00;;;;;;;;5112812;27;28509;-87
2022/12/01 14:18:02;;;;;;;;;0.00;0.00;;;;;;;;5093920;27;28581;-88
2022/12/01 14:20:29;;;;;;;;;10.00;10.00;;;;;;;;5112137;27;28452;-88
2022/12/01 14:23:12;;;;;;;;;0.00;0.00;;;;;;;;5093605;27;28961;-88
2022/12/01 14:25:38;;;;;;;;;3.00;3.00;;;;;;;;5106478;27;28759;-87
2022/12/01 14:28:11;;;;;;;;;0.00;0.00;;;;;;;;5111911;27;28663;-87
2022/12/01 14:30:40;;;;;;;;;0.00;0.00;;;;;;;;5112294;27;29697;-88
2022/12/01 14:33:34;;;;;;;;;0.00;0.00;;;;;;;;5093673;27;29210;-87
2022/12/01 14:36:00;;;;;;;;;0.00;0.00;;;;;;;;5110948;27;28724;-88
2022/12/01 14:38:27;;;;;;;;;0.00;0.00;;;;;;;;5105044;27;29795;-87
2022/12/01 14:40:52;;;;;;;;;0.00;0.00;;;;;;;;5111163;27;28527;-88
2022/12/01 14:46:06;;;;;;;;;0.00;0.00;;;;;;;;5110759;27;28479;-88
2022/12/01 14:48:34;;;;;;;;;0.00;0.00;;;;;;;;5091504;27;28545;-88
2022/12/01 14:51:18;;;;;;;;;0.00;0.00;;;;;;;;5110857;27;28550;-87
2022/12/01 14:53:45;;;;;;;;;0.00;0.00;;;;;;;;5110932;27;28443;-87
2022/12/01 14:56:12;;;;;;;;;0.00;0.00;;;;;;;;5092731;27;28713;-87
2022/12/01 14:58:37;;;;;;;;;0.00;0.00;;;;;;;;5110855;27;28610;-87